sensor_id;sensor_type;location;lat;lon;timestamp;temperature;humidity
39655;DHT22;25336;59.944;11.010;2022-07-06T00:01:19;15.80;45.30
39655;DHT22;25336;59.944;11.010;2022-07-06T00:03:45;15.80;45.40
39655;DHT22;25336;59.944;11.010;2022-07-06T00:06:10;15.70;45.30
39655;DHT22;25336;59.944;11.010;2022-07-06T00:08:37;15.70;45.30
39655;DHT22;25336;59.944;11.010;2022-07-06T00:11:03;16.40;45.70
39655;DHT22;25336;59.944;11.010;2022-07-06T00:13:29;15.60;45.50
39655;DHT22;25336;59.944;11.010;2022-07-06T00:15:55;15.70;45.90
39655;DHT22;25336;59.944;11.010;2022-07-06T00:18:20;15.60;45.90
39655;DHT22;25336;59.944;11.010;2022-07-06T00:20:46;15.50;46.00
39655;DHT22;25336;59.944;11.010;2022-07-06T00:23:11;16.40;46.50
39655;DHT22;25336;59.944;11.010;2022-07-06T00:25:37;16.60;46.70
39655;DHT22;25336;59.944;11.010;2022-07-06T00:28:03;16.40;46.70
39655;DHT22;25336;59.944;11.010;2022-07-06T00:30:29;15.40;46.20
39655;DHT22;25336;59.944;11.010;2022-07-06T00:32:55;15.40;46.50
39655;DHT22;25336;59.944;11.010;2022-07-06T00:35:21;15.30;46.40
39655;DHT22;25336;59.944;11.010;2022-07-06T00:37:46;15.20;46.40
39655;DHT22;25336;59.944;11.010;2022-07-06T00:40:12;15.60;46.70
39655;DHT22;25336;59.944;11.010;2022-07-06T00:42:46;15.20;46.50
39655;DHT22;25336;59.944;11.010;2022-07-06T00:45:12;15.10;46.80
39655;DHT22;25336;59.944;11.010;2022-07-06T00:47:39;15.10;46.80
39655;DHT22;25336;59.944;11.010;2022-07-06T00:50:06;15.70;47.50
39655;DHT22;25336;59.944;11.010;2022-07-06T00:52:52;15.00;46.70
39655;DHT22;25336;59.944;11.010;2022-07-06T00:55:23;15.00;46.70
39655;DHT22;25336;59.944;11.010;2022-07-06T00:57:50;14.90;46.80
39655;DHT22;25336;59.944;11.010;2022-07-06T01:00:18;14.90;46.70
39655;DHT22;25336;59.944;11.010;2022-07-06T01:02:45;14.90;46.60
39655;DHT22;25336;59.944;11.010;2022-07-06T01:05:13;15.00;46.80
39655;DHT22;25336;59.944;11.010;2022-07-06T01:07:40;15.40;47.00
39655;DHT22;25336;59.944;11.010;2022-07-06T01:10:08;14.80;46.60
39655;DHT22;25336;59.944;11.010;2022-07-06T01:12:35;14.80;46.70
39655;DHT22;25336;59.944;11.010;2022-07-06T01:15:03;14.80;46.70
39655;DHT22;25336;59.944;11.010;2022-07-06T01:17:30;14.80;46.70
39655;DHT22;25336;59.944;11.010;2022-07-06T01:19:56;14.70;46.70
39655;DHT22;25336;59.944;11.010;2022-07-06T01:22:22;15.10;46.90
39655;DHT22;25336;59.944;11.010;2022-07-06T01:24:47;14.70;46.60
39655;DHT22;25336;59.944;11.010;2022-07-06T01:27:13;14.70;46.70
39655;DHT22;25336;59.944;11.010;2022-07-06T01:29:38;14.70;46.80
39655;DHT22;25336;59.944;11.010;2022-07-06T01:32:04;14.70;46.90
39655;DHT22;25336;59.944;11.010;2022-07-06T01:34:30;14.60;46.80
39655;DHT22;25336;59.944;11.010;2022-07-06T01:36:56;15.70;47.50
39655;DHT22;25336;59.944;11.010;2022-07-06T01:39:21;14.60;47.10
39655;DHT22;25336;59.944;11.010;2022-07-06T01:41:47;14.50;47.70
39655;DHT22;25336;59.944;11.010;2022-07-06T01:44:13;15.10;47.50
39655;DHT22;25336;59.944;11.010;2022-07-06T01:46:38;15.00;47.60
39655;DHT22;25336;59.944;11.010;2022-07-06T01:49:05;15.60;48.00
39655;DHT22;25336;59.944;11.010;2022-07-06T01:51:31;14.40;47.40
39655;DHT22;25336;59.944;11.010;2022-07-06T01:53:57;14.40;47.40
39655;DHT22;25336;59.944;11.010;2022-07-06T01:56:23;14.40;47.70
39655;DHT22;25336;59.944;11.010;2022-07-06T01:58:49;14.30;47.60
39655;DHT22;25336;59.944;11.010;2022-07-06T02:01:16;15.50;48.20
39655;DHT22;25336;59.944;11.010;2022-07-06T02:03:43;15.20;48.10
39655;DHT22;25336;59.944;11.010;2022-07-06T02:06:09;14.30;47.80
39655;DHT22;25336;59.944;11.010;2022-07-06T02:08:35;14.30;47.90
39655;DHT22;25336;59.944;11.010;2022-07-06T02:11:05;15.10;48.40
39655;DHT22;25336;59.944;11.010;2022-07-06T02:13:31;14.20;48.10
39655;DHT22;25336;59.944;11.010;2022-07-06T02:15:56;14.20;48.10
39655;DHT22;25336;59.944;11.010;2022-07-06T02:18:22;15.30;48.80
39655;DHT22;25336;59.944;11.010;2022-07-06T02:20:47;14.20;48.30
39655;DHT22;25336;59.944;11.010;2022-07-06T02:23:13;14.10;48.30
39655;DHT22;25336;59.944;11.010;2022-07-06T02:25:39;14.90;48.80
39655;DHT22;25336;59.944;11.010;2022-07-06T02:28:04;14.90;48.90
39655;DHT22;25336;59.944;11.010;2022-07-06T02:30:30;15.10;49.10
39655;DHT22;25336;59.944;11.010;2022-07-06T02:32:55;14.00;48.70
39655;DHT22;25336;59.944;11.010;2022-07-06T02:35:21;14.00;48.80
39655;DHT22;25336;59.944;11.010;2022-07-06T02:37:47;14.00;48.80
39655;DHT22;25336;59.944;11.010;2022-07-06T02:40:12;14.90;49.30
39655;DHT22;25336;59.944;11.010;2022-07-06T02:42:38;15.10;49.50
39655;DHT22;25336;59.944;11.010;2022-07-06T02:45:05;15.00;49.60
39655;DHT22;25336;59.944;11.010;2022-07-06T02:47:31;15.00;49.70
39655;DHT22;25336;59.944;11.010;2022-07-06T02:49:56;13.90;49.20
39655;DHT22;25336;59.944;11.010;2022-07-06T02:52:22;14.80;49.70
39655;DHT22;25336;59.944;11.010;2022-07-06T02:54:48;14.50;49.60
39655;DHT22;25336;59.944;11.010;2022-07-06T02:57:15;13.90;49.50
39655;DHT22;25336;59.944;11.010;2022-07-06T02:59:40;14.80;50.10
39655;DHT22;25336;59.944;11.010;2022-07-06T03:02:06;14.20;50.00
39655;DHT22;25336;59.944;11.010;2022-07-06T03:04:33;14.70;50.40
39655;DHT22;25336;59.944;11.010;2022-07-06T03:06:59;13.70;50.10
39655;DHT22;25336;59.944;11.010;2022-07-06T03:09:24;13.80;50.20
39655;DHT22;25336;59.944;11.010;2022-07-06T03:11:50;13.70;50.20
39655;DHT22;25336;59.944;11.010;2022-07-06T03:14:16;14.80;50.90
39655;DHT22;25336;59.944;11.010;2022-07-06T03:16:41;14.00;50.60
39655;DHT22;25336;59.944;11.010;2022-07-06T03:19:07;13.70;50.60
39655;DHT22;25336;59.944;11.010;2022-07-06T03:21:33;13.70;50.70
39655;DHT22;25336;59.944;11.010;2022-07-06T03:23:58;13.70;50.70
39655;DHT22;25336;59.944;11.010;2022-07-06T03:26:24;13.70;50.70
39655;DHT22;25336;59.944;11.010;2022-07-06T03:28:50;14.70;51.20
39655;DHT22;25336;59.944;11.010;2022-07-06T03:31:15;13.70;50.80
39655;DHT22;25336;59.944;11.010;2022-07-06T03:33:41;14.50;51.30
39655;DHT22;25336;59.944;11.010;2022-07-06T03:36:07;13.60;51.00
39655;DHT22;25336;59.944;11.010;2022-07-06T03:38:33;13.70;51.10
39655;DHT22;25336;59.944;11.010;2022-07-06T03:40:59;14.30;51.60
39655;DHT22;25336;59.944;11.010;2022-07-06T03:43:24;14.10;51.60
39655;DHT22;25336;59.944;11.010;2022-07-06T03:45:50;14.70;52.10
39655;DHT22;25336;59.944;11.010;2022-07-06T03:48:16;13.70;51.60
39655;DHT22;25336;59.944;11.010;2022-07-06T03:50:41;13.70;51.60
39655;DHT22;25336;59.944;11.010;2022-07-06T03:53:07;13.70;51.70
39655;DHT22;25336;59.944;11.010;2022-07-06T03:55:32;14.10;51.90
39655;DHT22;25336;59.944;11.010;2022-07-06T03:57:58;14.80;52.10
39655;DHT22;25336;59.944;11.010;2022-07-06T04:00:24;13.80;51.70
39655;DHT22;25336;59.944;11.010;2022-07-06T04:02:49;14.70;52.20
39655;DHT22;25336;59.944;11.010;2022-07-06T04:05:15;13.90;51.70
39655;DHT22;25336;59.944;11.010;2022-07-06T04:07:43;15.00;52.30
39655;DHT22;25336;59.944;11.010;2022-07-06T04:10:08;14.00;52.10
39655;DHT22;25336;59.944;11.010;2022-07-06T04:12:42;14.00;52.10
39655;DHT22;25336;59.944;11.010;2022-07-06T04:15:09;14.10;52.10
39655;DHT22;25336;59.944;11.010;2022-07-06T04:17:35;14.10;51.90
39655;DHT22;25336;59.944;11.010;2022-07-06T04:20:23;14.10;51.80
39655;DHT22;25336;59.944;11.010;2022-07-06T04:22:49;14.30;51.90
39655;DHT22;25336;59.944;11.010;2022-07-06T04:25:15;14.60;51.90
39655;DHT22;25336;59.944;11.010;2022-07-06T04:27:40;14.90;52.00
39655;DHT22;25336;59.944;11.010;2022-07-06T04:30:08;14.50;51.70
39655;DHT22;25336;59.944;11.010;2022-07-06T04:32:34;14.40;51.70
39655;DHT22;25336;59.944;11.010;2022-07-06T04:35:00;15.50;52.00
39655;DHT22;25336;59.944;11.010;2022-07-06T04:37:26;15.10;51.60
39655;DHT22;25336;59.944;11.010;2022-07-06T04:39:51;15.70;51.60
39655;DHT22;25336;59.944;11.010;2022-07-06T04:42:17;14.70;51.00
39655;DHT22;25336;59.944;11.010;2022-07-06T04:44:43;14.90;51.00
39655;DHT22;25336;59.944;11.010;2022-07-06T04:47:09;15.80;51.20
39655;DHT22;25336;59.944;11.010;2022-07-06T04:49:38;14.90;50.40
39655;DHT22;25336;59.944;11.010;2022-07-06T04:52:04;15.00;50.00
39655;DHT22;25336;59.944;11.010;2022-07-06T04:54:29;15.00;49.90
39655;DHT22;25336;59.944;11.010;2022-07-06T04:56:55;15.20;49.80
39655;DHT22;25336;59.944;11.010;2022-07-06T04:59:21;15.20;49.80
39655;DHT22;25336;59.944;11.010;2022-07-06T05:01:46;15.30;49.70
39655;DHT22;25336;59.944;11.010;2022-07-06T05:04:12;15.40;49.80
39655;DHT22;25336;59.944;11.010;2022-07-06T05:06:39;16.40;50.40
39655;DHT22;25336;59.944;11.010;2022-07-06T05:09:05;15.60;50.10
39655;DHT22;25336;59.944;11.010;2022-07-06T05:11:31;16.40;50.10
39655;DHT22;25336;59.944;11.010;2022-07-06T05:13:57;15.60;49.50
39655;DHT22;25336;59.944;11.010;2022-07-06T05:16:22;15.70;49.10
39655;DHT22;25336;59.944;11.010;2022-07-06T05:18:49;15.80;49.00
39655;DHT22;25336;59.944;11.010;2022-07-06T05:21:15;15.80;49.00
39655;DHT22;25336;59.944;11.010;2022-07-06T05:23:41;15.90;48.90
39655;DHT22;25336;59.944;11.010;2022-07-06T05:26:07;15.90;48.80
39655;DHT22;25336;59.944;11.010;2022-07-06T05:28:32;16.00;48.70
39655;DHT22;25336;59.944;11.010;2022-07-06T05:30:59;16.10;48.70
39655;DHT22;25336;59.944;11.010;2022-07-06T05:33:24;16.10;48.80
39655;DHT22;25336;59.944;11.010;2022-07-06T05:35:50;16.10;48.60
39655;DHT22;25336;59.944;11.010;2022-07-06T05:38:16;16.60;48.60
39655;DHT22;25336;59.944;11.010;2022-07-06T05:40:41;16.30;48.30
39655;DHT22;25336;59.944;11.010;2022-07-06T05:43:07;17.20;48.60
39655;DHT22;25336;59.944;11.010;2022-07-06T05:45:32;16.40;48.00
39655;DHT22;25336;59.944;11.010;2022-07-06T05:47:58;16.80;47.90
39655;DHT22;25336;59.944;11.010;2022-07-06T05:50:42;16.50;47.30
39655;DHT22;25336;59.944;11.010;2022-07-06T05:53:08;16.60;47.00
39655;DHT22;25336;59.944;11.010;2022-07-06T05:55:33;16.80;46.70
39655;DHT22;25336;59.944;11.010;2022-07-06T05:57:59;16.70;46.30
39655;DHT22;25336;59.944;11.010;2022-07-06T06:00:26;16.80;46.00
39655;DHT22;25336;59.944;11.010;2022-07-06T06:02:52;16.90;45.90
39655;DHT22;25336;59.944;11.010;2022-07-06T06:05:19;16.90;45.50
39655;DHT22;25336;59.944;11.010;2022-07-06T06:07:45;17.00;45.20
39655;DHT22;25336;59.944;11.010;2022-07-06T06:10:16;17.00;44.60
39655;DHT22;25336;59.944;11.010;2022-07-06T06:12:43;17.20;44.70
39655;DHT22;25336;59.944;11.010;2022-07-06T06:15:09;17.10;44.50
39655;DHT22;25336;59.944;11.010;2022-07-06T06:17:35;17.10;44.50
39655;DHT22;25336;59.944;11.010;2022-07-06T06:20:01;17.20;44.50
39655;DHT22;25336;59.944;11.010;2022-07-06T06:22:27;17.20;44.50
39655;DHT22;25336;59.944;11.010;2022-07-06T06:24:53;17.20;44.70
39655;DHT22;25336;59.944;11.010;2022-07-06T06:27:19;17.30;45.00
39655;DHT22;25336;59.944;11.010;2022-07-06T06:29:45;17.30;44.90
39655;DHT22;25336;59.944;11.010;2022-07-06T06:32:11;17.30;45.00
39655;DHT22;25336;59.944;11.010;2022-07-06T06:34:38;17.40;45.00
39655;DHT22;25336;59.944;11.010;2022-07-06T06:37:03;17.40;45.20
39655;DHT22;25336;59.944;11.010;2022-07-06T06:39:29;17.50;44.70
39655;DHT22;25336;59.944;11.010;2022-07-06T06:41:55;17.50;44.40
39655;DHT22;25336;59.944;11.010;2022-07-06T06:44:20;17.60;44.10
39655;DHT22;25336;59.944;11.010;2022-07-06T06:46:49;17.60;44.10
39655;DHT22;25336;59.944;11.010;2022-07-06T06:49:15;17.70;44.20
39655;DHT22;25336;59.944;11.010;2022-07-06T06:51:41;17.80;44.30
39655;DHT22;25336;59.944;11.010;2022-07-06T06:54:07;17.80;44.20
39655;DHT22;25336;59.944;11.010;2022-07-06T06:56:32;17.90;44.00
39655;DHT22;25336;59.944;11.010;2022-07-06T06:58:59;17.90;43.80
39655;DHT22;25336;59.944;11.010;2022-07-06T07:01:26;18.00;43.60
39655;DHT22;25336;59.944;11.010;2022-07-06T07:03:52;18.10;43.20
39655;DHT22;25336;59.944;11.010;2022-07-06T07:06:17;18.50;43.60
39655;DHT22;25336;59.944;11.010;2022-07-06T07:08:43;18.20;43.10
39655;DHT22;25336;59.944;11.010;2022-07-06T07:11:09;18.30;43.20
39655;DHT22;25336;59.944;11.010;2022-07-06T07:13:34;18.30;43.20
39655;DHT22;25336;59.944;11.010;2022-07-06T07:16:00;18.40;42.90
39655;DHT22;25336;59.944;11.010;2022-07-06T07:18:26;18.50;42.90
39655;DHT22;25336;59.944;11.010;2022-07-06T07:20:52;18.60;42.90
39655;DHT22;25336;59.944;11.010;2022-07-06T07:23:17;18.60;42.70
39655;DHT22;25336;59.944;11.010;2022-07-06T07:25:43;18.70;42.40
39655;DHT22;25336;59.944;11.010;2022-07-06T07:28:08;18.70;42.40
39655;DHT22;25336;59.944;11.010;2022-07-06T07:30:34;18.80;42.30
39655;DHT22;25336;59.944;11.010;2022-07-06T07:33:00;18.90;42.50
39655;DHT22;25336;59.944;11.010;2022-07-06T07:35:27;18.90;42.30
39655;DHT22;25336;59.944;11.010;2022-07-06T07:37:52;19.00;42.40
39655;DHT22;25336;59.944;11.010;2022-07-06T07:40:18;19.10;41.80
39655;DHT22;25336;59.944;11.010;2022-07-06T07:42:44;19.80;41.80
39655;DHT22;25336;59.944;11.010;2022-07-06T07:45:11;19.90;41.60
39655;DHT22;25336;59.944;11.010;2022-07-06T07:47:36;19.30;40.90
39655;DHT22;25336;59.944;11.010;2022-07-06T07:50:02;19.30;40.50
39655;DHT22;25336;59.944;11.010;2022-07-06T07:52:28;19.30;40.00
39655;DHT22;25336;59.944;11.010;2022-07-06T07:54:54;19.40;40.00
39655;DHT22;25336;59.944;11.010;2022-07-06T07:57:19;19.40;39.60
39655;DHT22;25336;59.944;11.010;2022-07-06T07:59:47;19.40;40.30
39655;DHT22;25336;59.944;11.010;2022-07-06T08:02:13;19.50;39.30
39655;DHT22;25336;59.944;11.010;2022-07-06T08:04:39;20.50;39.60
39655;DHT22;25336;59.944;11.010;2022-07-06T08:07:04;19.50;39.50
39655;DHT22;25336;59.944;11.010;2022-07-06T08:09:31;20.30;39.70
39655;DHT22;25336;59.944;11.010;2022-07-06T08:11:57;19.60;39.60
39655;DHT22;25336;59.944;11.010;2022-07-06T08:14:24;19.70;39.60
39655;DHT22;25336;59.944;11.010;2022-07-06T08:16:49;19.70;39.20
39655;DHT22;25336;59.944;11.010;2022-07-06T08:19:15;19.80;39.00
39655;DHT22;25336;59.944;11.010;2022-07-06T08:21:41;19.80;39.00
39655;DHT22;25336;59.944;11.010;2022-07-06T08:24:08;19.90;38.70
39655;DHT22;25336;59.944;11.010;2022-07-06T08:26:36;19.90;38.50
39655;DHT22;25336;59.944;11.010;2022-07-06T08:29:03;19.90;38.10
39655;DHT22;25336;59.944;11.010;2022-07-06T08:31:31;20.00;38.10
39655;DHT22;25336;59.944;11.010;2022-07-06T08:33:59;20.10;37.80
39655;DHT22;25336;59.944;11.010;2022-07-06T08:36:25;21.20;38.20
39655;DHT22;25336;59.944;11.010;2022-07-06T08:38:50;20.80;38.30
39655;DHT22;25336;59.944;11.010;2022-07-06T08:41:16;20.20;37.10
39655;DHT22;25336;59.944;11.010;2022-07-06T08:43:42;20.20;37.70
39655;DHT22;25336;59.944;11.010;2022-07-06T08:46:08;20.20;37.50
39655;DHT22;25336;59.944;11.010;2022-07-06T08:48:36;20.30;37.10
39655;DHT22;25336;59.944;11.010;2022-07-06T08:51:04;20.30;36.80
39655;DHT22;25336;59.944;11.010;2022-07-06T08:53:30;20.40;37.00
39655;DHT22;25336;59.944;11.010;2022-07-06T08:55:55;20.40;37.20
39655;DHT22;25336;59.944;11.010;2022-07-06T08:58:24;20.90;37.40
39655;DHT22;25336;59.944;11.010;2022-07-06T09:00:49;20.50;36.90
39655;DHT22;25336;59.944;11.010;2022-07-06T09:03:15;20.50;36.90
39655;DHT22;25336;59.944;11.010;2022-07-06T09:05:45;21.10;37.80
39655;DHT22;25336;59.944;11.010;2022-07-06T09:08:11;20.70;37.50
39655;DHT22;25336;59.944;11.010;2022-07-06T09:10:37;20.70;37.40
39655;DHT22;25336;59.944;11.010;2022-07-06T09:13:04;20.80;37.30
39655;DHT22;25336;59.944;11.010;2022-07-06T09:15:30;20.80;36.80
39655;DHT22;25336;59.944;11.010;2022-07-06T09:17:56;21.30;36.60
39655;DHT22;25336;59.944;11.010;2022-07-06T09:20:23;20.90;36.30
39655;DHT22;25336;59.944;11.010;2022-07-06T09:22:50;21.00;36.20
39655;DHT22;25336;59.944;11.010;2022-07-06T09:25:16;21.00;36.40
39655;DHT22;25336;59.944;11.010;2022-07-06T09:27:44;21.40;36.50
39655;DHT22;25336;59.944;11.010;2022-07-06T09:30:16;21.20;35.90
39655;DHT22;25336;59.944;11.010;2022-07-06T09:32:44;21.20;36.20
39655;DHT22;25336;59.944;11.010;2022-07-06T09:35:38;21.00;36.50
39655;DHT22;25336;59.944;11.010;2022-07-06T09:38:14;21.40;35.70
39655;DHT22;25336;59.944;11.010;2022-07-06T09:40:42;21.50;35.50
39655;DHT22;25336;59.944;11.010;2022-07-06T09:43:16;21.60;35.60
39655;DHT22;25336;59.944;11.010;2022-07-06T09:45:52;21.70;35.00
39655;DHT22;25336;59.944;11.010;2022-07-06T09:48:19;21.70;34.30
39655;DHT22;25336;59.944;11.010;2022-07-06T09:51:01;21.60;34.60
39655;DHT22;25336;59.944;11.010;2022-07-06T09:53:35;21.80;33.70
39655;DHT22;25336;59.944;11.010;2022-07-06T09:56:01;21.90;33.30
39655;DHT22;25336;59.944;11.010;2022-07-06T09:58:27;21.90;34.00
39655;DHT22;25336;59.944;11.010;2022-07-06T10:00:53;21.90;33.30
39655;DHT22;25336;59.944;11.010;2022-07-06T10:03:19;21.90;33.40
39655;DHT22;25336;59.944;11.010;2022-07-06T10:05:46;22.00;33.80
39655;DHT22;25336;59.944;11.010;2022-07-06T10:08:14;22.00;33.90
39655;DHT22;25336;59.944;11.010;2022-07-06T10:10:40;22.10;34.20
39655;DHT22;25336;59.944;11.010;2022-07-06T10:13:07;22.10;34.90
39655;DHT22;25336;59.944;11.010;2022-07-06T10:15:34;22.10;35.30
39655;DHT22;25336;59.944;11.010;2022-07-06T10:18:02;22.20;34.60
39655;DHT22;25336;59.944;11.010;2022-07-06T10:20:30;22.30;34.50
39655;DHT22;25336;59.944;11.010;2022-07-06T10:22:59;22.30;34.00
39655;DHT22;25336;59.944;11.010;2022-07-06T10:25:29;22.30;33.30
39655;DHT22;25336;59.944;11.010;2022-07-06T10:27:55;22.30;34.20
39655;DHT22;25336;59.944;11.010;2022-07-06T10:30:22;22.30;34.10
39655;DHT22;25336;59.944;11.010;2022-07-06T10:32:49;22.30;33.70
39655;DHT22;25336;59.944;11.010;2022-07-06T10:35:18;22.30;33.30
39655;DHT22;25336;59.944;11.010;2022-07-06T10:37:45;22.30;33.50
39655;DHT22;25336;59.944;11.010;2022-07-06T10:40:13;22.30;33.10
39655;DHT22;25336;59.944;11.010;2022-07-06T10:42:59;22.20;32.60
39655;DHT22;25336;59.944;11.010;2022-07-06T10:50:53;22.20;32.60
39655;DHT22;25336;59.944;11.010;2022-07-06T10:53:27;22.20;33.20
39655;DHT22;25336;59.944;11.010;2022-07-06T10:55:54;22.10;33.50
39655;DHT22;25336;59.944;11.010;2022-07-06T10:58:49;22.20;33.10
39655;DHT22;25336;59.944;11.010;2022-07-06T11:01:19;22.20;31.70
39655;DHT22;25336;59.944;11.010;2022-07-06T11:06:24;22.10;32.80
39655;DHT22;25336;59.944;11.010;2022-07-06T11:14:06;22.20;32.20
39655;DHT22;25336;59.944;11.010;2022-07-06T11:16:38;22.30;33.40
39655;DHT22;25336;59.944;11.010;2022-07-06T11:21:43;22.30;33.70
39655;DHT22;25336;59.944;11.010;2022-07-06T11:24:30;22.40;32.20
39655;DHT22;25336;59.944;11.010;2022-07-06T11:26:59;22.40;33.20
39655;DHT22;25336;59.944;11.010;2022-07-06T11:29:29;22.50;33.30
39655;DHT22;25336;59.944;11.010;2022-07-06T11:31:57;22.60;34.00
39655;DHT22;25336;59.944;11.010;2022-07-06T11:34:35;22.70;33.90
39655;DHT22;25336;59.944;11.010;2022-07-06T11:37:07;22.80;34.00
39655;DHT22;25336;59.944;11.010;2022-07-06T11:39:35;23.00;33.90
39655;DHT22;25336;59.944;11.010;2022-07-06T11:42:02;23.10;34.00
39655;DHT22;25336;59.944;11.010;2022-07-06T11:44:29;23.20;33.20
39655;DHT22;25336;59.944;11.010;2022-07-06T11:46:55;23.30;32.20
39655;DHT22;25336;59.944;11.010;2022-07-06T11:49:22;23.30;32.80
39655;DHT22;25336;59.944;11.010;2022-07-06T11:51:48;23.30;33.40
39655;DHT22;25336;59.944;11.010;2022-07-06T11:54:19;23.30;33.50
39655;DHT22;25336;59.944;11.010;2022-07-06T11:56:50;23.30;32.60
39655;DHT22;25336;59.944;11.010;2022-07-06T11:59:24;23.40;32.10
39655;DHT22;25336;59.944;11.010;2022-07-06T12:02:01;23.30;31.20
39655;DHT22;25336;59.944;11.010;2022-07-06T12:04:27;23.30;32.30
39655;DHT22;25336;59.944;11.010;2022-07-06T12:06:54;23.20;32.50
39655;DHT22;25336;59.944;11.010;2022-07-06T12:09:21;23.20;32.20
39655;DHT22;25336;59.944;11.010;2022-07-06T12:11:47;23.20;32.00
39655;DHT22;25336;59.944;11.010;2022-07-06T12:16:40;23.20;32.20
39655;DHT22;25336;59.944;11.010;2022-07-06T12:19:06;23.20;31.90
39655;DHT22;25336;59.944;11.010;2022-07-06T12:21:34;23.30;33.20
39655;DHT22;25336;59.944;11.010;2022-07-06T12:24:00;23.30;33.30
39655;DHT22;25336;59.944;11.010;2022-07-06T12:26:27;23.40;32.70
39655;DHT22;25336;59.944;11.010;2022-07-06T12:29:03;23.40;32.40
39655;DHT22;25336;59.944;11.010;2022-07-06T12:31:56;23.50;32.50
39655;DHT22;25336;59.944;11.010;2022-07-06T12:34:24;23.50;31.90
39655;DHT22;25336;59.944;11.010;2022-07-06T12:36:54;23.60;32.70
39655;DHT22;25336;59.944;11.010;2022-07-06T12:39:26;23.60;32.50
39655;DHT22;25336;59.944;11.010;2022-07-06T12:42:04;23.70;33.00
39655;DHT22;25336;59.944;11.010;2022-07-06T12:44:31;23.70;33.20
39655;DHT22;25336;59.944;11.010;2022-07-06T12:47:07;23.80;32.40
39655;DHT22;25336;59.944;11.010;2022-07-06T12:49:36;23.80;32.30
39655;DHT22;25336;59.944;11.010;2022-07-06T12:52:10;23.90;33.20
39655;DHT22;25336;59.944;11.010;2022-07-06T12:54:44;24.00;31.90
39655;DHT22;25336;59.944;11.010;2022-07-06T12:57:22;24.00;31.60
39655;DHT22;25336;59.944;11.010;2022-07-06T13:05:01;24.00;30.80
39655;DHT22;25336;59.944;11.010;2022-07-06T13:07:28;24.00;30.70
39655;DHT22;25336;59.944;11.010;2022-07-06T13:09:57;24.00;30.70
39655;DHT22;25336;59.944;11.010;2022-07-06T13:12:23;24.00;31.30
39655;DHT22;25336;59.944;11.010;2022-07-06T13:14:49;24.00;31.60
39655;DHT22;25336;59.944;11.010;2022-07-06T13:17:15;24.00;31.30
39655;DHT22;25336;59.944;11.010;2022-07-06T13:19:40;24.00;30.40
39655;DHT22;25336;59.944;11.010;2022-07-06T13:22:06;24.00;30.40
39655;DHT22;25336;59.944;11.010;2022-07-06T13:24:32;23.90;30.40
39655;DHT22;25336;59.944;11.010;2022-07-06T13:26:58;23.80;30.60
39655;DHT22;25336;59.944;11.010;2022-07-06T13:29:24;24.30;31.00
39655;DHT22;25336;59.944;11.010;2022-07-06T13:31:50;23.70;31.10
39655;DHT22;25336;59.944;11.010;2022-07-06T13:34:15;23.60;30.60
39655;DHT22;25336;59.944;11.010;2022-07-06T13:36:41;23.60;30.70
39655;DHT22;25336;59.944;11.010;2022-07-06T13:39:08;23.50;32.10
39655;DHT22;25336;59.944;11.010;2022-07-06T13:41:33;24.30;32.90
39655;DHT22;25336;59.944;11.010;2022-07-06T13:44:00;23.50;32.70
39655;DHT22;25336;59.944;11.010;2022-07-06T13:46:27;23.60;33.10
39655;DHT22;25336;59.944;11.010;2022-07-06T13:48:53;23.60;32.90
39655;DHT22;25336;59.944;11.010;2022-07-06T13:51:19;23.70;33.20
39655;DHT22;25336;59.944;11.010;2022-07-06T13:53:45;23.80;33.70
39655;DHT22;25336;59.944;11.010;2022-07-06T13:56:11;23.90;33.20
39655;DHT22;25336;59.944;11.010;2022-07-06T13:58:37;24.00;33.20
39655;DHT22;25336;59.944;11.010;2022-07-06T14:01:03;24.10;33.10
39655;DHT22;25336;59.944;11.010;2022-07-06T14:03:30;24.20;33.10
39655;DHT22;25336;59.944;11.010;2022-07-06T14:05:59;24.20;32.80
39655;DHT22;25336;59.944;11.010;2022-07-06T14:08:26;24.30;32.60
39655;DHT22;25336;59.944;11.010;2022-07-06T14:10:52;24.40;32.20
39655;DHT22;25336;59.944;11.010;2022-07-06T14:13:19;24.40;32.30
39655;DHT22;25336;59.944;11.010;2022-07-06T14:15:45;24.40;32.50
39655;DHT22;25336;59.944;11.010;2022-07-06T14:18:11;24.40;32.60
39655;DHT22;25336;59.944;11.010;2022-07-06T14:20:37;24.40;32.20
39655;DHT22;25336;59.944;11.010;2022-07-06T14:23:02;24.40;32.40
39655;DHT22;25336;59.944;11.010;2022-07-06T14:25:28;24.40;32.30
39655;DHT22;25336;59.944;11.010;2022-07-06T14:27:54;24.30;32.20
39655;DHT22;25336;59.944;11.010;2022-07-06T14:30:19;24.30;32.70
39655;DHT22;25336;59.944;11.010;2022-07-06T14:32:45;24.30;32.90
39655;DHT22;25336;59.944;11.010;2022-07-06T14:35:11;24.30;33.20
39655;DHT22;25336;59.944;11.010;2022-07-06T14:37:37;24.20;33.50
39655;DHT22;25336;59.944;11.010;2022-07-06T14:40:03;24.20;33.40
39655;DHT22;25336;59.944;11.010;2022-07-06T14:42:29;24.20;33.30
39655;DHT22;25336;59.944;11.010;2022-07-06T14:44:55;24.20;33.40
39655;DHT22;25336;59.944;11.010;2022-07-06T14:47:20;24.20;33.50
39655;DHT22;25336;59.944;11.010;2022-07-06T14:49:46;24.30;33.90
39655;DHT22;25336;59.944;11.010;2022-07-06T14:52:12;24.40;33.50
39655;DHT22;25336;59.944;11.010;2022-07-06T14:54:38;24.40;32.90
39655;DHT22;25336;59.944;11.010;2022-07-06T14:57:04;24.30;32.10
39655;DHT22;25336;59.944;11.010;2022-07-06T14:59:30;24.40;33.20
39655;DHT22;25336;59.944;11.010;2022-07-06T15:01:56;24.40;31.70
39655;DHT22;25336;59.944;11.010;2022-07-06T15:04:22;24.40;31.70
39655;DHT22;25336;59.944;11.010;2022-07-06T15:06:48;24.30;31.00
39655;DHT22;25336;59.944;11.010;2022-07-06T15:09:14;24.20;31.10
39655;DHT22;25336;59.944;11.010;2022-07-06T15:11:39;24.10;31.20
39655;DHT22;25336;59.944;11.010;2022-07-06T15:14:05;23.90;31.00
39655;DHT22;25336;59.944;11.010;2022-07-06T15:16:31;23.70;31.40
39655;DHT22;25336;59.944;11.010;2022-07-06T15:18:56;23.60;31.80
39655;DHT22;25336;59.944;11.010;2022-07-06T15:21:23;23.40;31.90
39655;DHT22;25336;59.944;11.010;2022-07-06T15:23:48;23.30;32.50
39655;DHT22;25336;59.944;11.010;2022-07-06T15:26:14;23.10;32.60
39655;DHT22;25336;59.944;11.010;2022-07-06T15:28:40;22.90;32.60
39655;DHT22;25336;59.944;11.010;2022-07-06T15:31:05;22.80;33.00
39655;DHT22;25336;59.944;11.010;2022-07-06T15:33:31;22.60;33.00
39655;DHT22;25336;59.944;11.010;2022-07-06T15:35:57;22.50;33.60
39655;DHT22;25336;59.944;11.010;2022-07-06T15:38:22;22.30;33.90